Share

Abbeville, France

7:03 AM CEST on April 25, 2014 (GMT +0200)
IPICARDI2 Elev 151 ft | 50.14 °N, 1.95 °E | Change Station

Current weather conditions updated 3 minutes ago

Mist
Mist
52.5 °F
Feels Like 52.5 °F
N
0.0
Wind Variable Wind from NE
Gusts 0.0 mph
Sunrise 6:40 AM
Sunset 9:02 PM
Moon Waning Crescent

Today is forecast to be nearly the same temperature as yesterday. Afternoon showers.

Pressure 29.80 in
Visibility 1.4 miles
Clouds
Dew Point 45 °F
Humidity 76%
Rainfall -999.00 in
Snow Depth Not available.
UV Not available.
Pollen Not available.
Air Quality Not available.
Flu Activity Not available.
METAR LFAT 250430Z AUTO 05009KT 010V070 2300 BR NSC 12/10 Q1009

More Conditions Fewer Conditions

Pressure 29.80 in
Visibility 1.4 miles
Clouds
Dew Point 45 °F
Humidity 76%
Rainfall -999.00 in
Snow Depth Not available.
UV Not available.
Pollen Not available.
Air Quality Not available.
Flu Activity Not available.
METAR LFAT 250430Z AUTO 05009KT 010V070 2300 BR NSC 12/10 Q1009

More Conditions Fewer Conditions

10-Day Weather Forecast

Almanac

Astronomy

Apr. 25, 2014 Rise Set
Actual Time 6:40 AM CEST 9:02 PM CEST
Civil Twilight 6:04 AM CEST 9:38 PM CEST
Nautical Twilight 5:19 AM CEST 10:23 PM CEST
Astronomical Twilight 4:27 AM CEST 11:15 PM CEST
Moon 4:45 AM CEST 4:44 PM CEST
Length of Visible Light 15h 33m
Length of Day
14h 22m
Tomorrow will be 3m 26s longer.
Waning Crescent, 19% of the Moon is Illuminated
Today
Waning Crescent
Apr 29
New
May 6
First Quarter
May 14
Full
May 21
Last Quarter

Yesterday's Extremes

Country Highs Country Lows

Community

  • Deer in evening light
    Deer in evening light
  • Critter
    Critter
  • Jone Runs Falls
    Jone Runs Falls
  • Easter in Shenandoah National Park
    Easter in Shenandoah National Park
  • Sunset at Apalachicola Bay, Florida
    Sunset at Apalachicola Bay, Florida

WunderPhotos

Upload Photos

1,704,858 photos uploaded!

WunderBlogs® & News

Nearby

Snow Depth

Not available.

Coastal Water Temperatures

Place Temperature
No Stations Reporting

Earthquake Activity

City Distance Mag. Time & Date
No recent earthquake activity has been reported nearby.
Minimum magnitude displayed is 2.5.

Nearby Weather Stations

Station Location Temp. Dew Point Humidity Wind Precip. Elev Updated Type
Saint-Riquier 52.5 °F 45 °F 76% NE  at  0.0 mph 0.00 in / hr 151 ft 6:59 AM CEST Normal
Warlus, Warlus 51.4 °F 48 °F 89% North  at  0.0 mph 0.00 in / hr 148 ft 7:03 AM CEST Rapid Fire
BOUGAINVILLE 50.9 °F 49 °F 94% North  at  0.0 mph 0.00 in / hr 377 ft 7:00 AM CEST Normal
Bovelles 52.5 °F 51 °F 94% NW  at  0.0 mph 0.00 in / hr 390 ft 7:00 AM CEST Normal
Caulieres 50.0 °F 50 °F 96% WNW  at  0.0 mph 0.00 in / hr 617 ft 7:01 AM CEST Normal

Show More Stations Show Fewer Stations

What do you think?

We're not finished. Please let us know what you like, what you don't like, and what you are still missing.